sensor_id;sensor_type;location;lat;lon;timestamp;pressure;altitude;pressure_sealevel;temperature;humidity
54248;BME280;40161;39.768;2.722;2023-02-18T00:01:18;102921.25;;;7.04;100.00
54248;BME280;40161;39.768;2.722;2023-02-18T00:03:45;102924.94;;;6.89;100.00
54248;BME280;40161;39.768;2.722;2023-02-18T00:06:18;102926.81;;;6.64;100.00
54248;BME280;40161;39.768;2.722;2023-02-18T00:08:44;102925.94;;;6.69;100.00
54248;BME280;40161;39.768;2.722;2023-02-18T00:11:11;102905.16;;;6.39;100.00
54248;BME280;40161;39.768;2.722;2023-02-18T00:13:38;102917.25;;;6.28;100.00
54248;BME280;40161;39.768;2.722;2023-02-18T00:16:05;102922.47;;;6.19;100.00
54248;BME280;40161;39.768;2.722;2023-02-18T00:18:31;102915.94;;;6.20;100.00
54248;BME280;40161;39.768;2.722;2023-02-18T00:20:57;102912.25;;;6.40;100.00
54248;BME280;40161;39.768;2.722;2023-02-18T00:23:23;102923.69;;;6.47;100.00
54248;BME280;40161;39.768;2.722;2023-02-18T00:25:51;102918.28;;;6.37;100.00
54248;BME280;40161;39.768;2.722;2023-02-18T00:28:23;102920.78;;;6.33;100.00
54248;BME280;40161;39.768;2.722;2023-02-18T00:30:49;102901.69;;;6.33;100.00
54248;BME280;40161;39.768;2.722;2023-02-18T00:33:14;102905.72;;;6.41;100.00
54248;BME280;40161;39.768;2.722;2023-02-18T00:35:40;102915.47;;;6.81;100.00
54248;BME280;40161;39.768;2.722;2023-02-18T00:38:05;102903.38;;;6.58;100.00
54248;BME280;40161;39.768;2.722;2023-02-18T00:40:31;102912.94;;;6.56;100.00
54248;BME280;40161;39.768;2.722;2023-02-18T00:42:56;102917.09;;;6.48;100.00
54248;BME280;40161;39.768;2.722;2023-02-18T00:45:22;102907.47;;;6.27;100.00
54248;BME280;40161;39.768;2.722;2023-02-18T00:47:47;102894.28;;;6.00;100.00
54248;BME280;40161;39.768;2.722;2023-02-18T00:50:13;102907.84;;;6.10;100.00
54248;BME280;40161;39.768;2.722;2023-02-18T00:52:38;102905.06;;;6.15;100.00
54248;BME280;40161;39.768;2.722;2023-02-18T00:55:04;102898.19;;;6.23;100.00
54248;BME280;40161;39.768;2.722;2023-02-18T00:57:29;102907.47;;;6.27;100.00
54248;BME280;40161;39.768;2.722;2023-02-18T00:59:55;102907.63;;;6.40;100.00
54248;BME280;40161;39.768;2.722;2023-02-18T01:02:20;102908.03;;;6.58;100.00
54248;BME280;40161;39.768;2.722;2023-02-18T01:04:46;102911.34;;;6.84;100.00
54248;BME280;40161;39.768;2.722;2023-02-18T01:07:12;102917.03;;;6.87;100.00
54248;BME280;40161;39.768;2.722;2023-02-18T01:09:38;102930.00;;;7.01;100.00
54248;BME280;40161;39.768;2.722;2023-02-18T01:12:04;102897.03;;;6.68;100.00
54248;BME280;40161;39.768;2.722;2023-02-18T01:14:29;102918.44;;;6.85;100.00
54248;BME280;40161;39.768;2.722;2023-02-18T01:16:55;102892.47;;;6.58;100.00
54248;BME280;40161;39.768;2.722;2023-02-18T01:19:20;102920.63;;;6.14;100.00
54248;BME280;40161;39.768;2.722;2023-02-18T01:21:46;102897.63;;;6.26;100.00
54248;BME280;40161;39.768;2.722;2023-02-18T01:24:11;102908.78;;;6.29;100.00
54248;BME280;40161;39.768;2.722;2023-02-18T01:26:37;102895.84;;;6.45;100.00
54248;BME280;40161;39.768;2.722;2023-02-18T01:29:02;102913.88;;;6.75;100.00
54248;BME280;40161;39.768;2.722;2023-02-18T01:31:29;102894.66;;;6.56;100.00
54248;BME280;40161;39.768;2.722;2023-02-18T01:33:55;102893.13;;;6.45;100.00
54248;BME280;40161;39.768;2.722;2023-02-18T01:36:21;102903.72;;;6.12;100.00
54248;BME280;40161;39.768;2.722;2023-02-18T01:38:47;102908.84;;;6.19;100.00
54248;BME280;40161;39.768;2.722;2023-02-18T01:41:14;102910.75;;;6.24;100.00
54248;BME280;40161;39.768;2.722;2023-02-18T01:43:39;102884.50;;;5.88;100.00
54248;BME280;40161;39.768;2.722;2023-02-18T01:46:21;102894.22;;;6.05;100.00
54248;BME280;40161;39.768;2.722;2023-02-18T01:48:54;102893.03;;;6.21;100.00
54248;BME280;40161;39.768;2.722;2023-02-18T01:51:35;102887.53;;;6.26;100.00
54248;BME280;40161;39.768;2.722;2023-02-18T01:54:47;102889.44;;;6.31;100.00
54248;BME280;40161;39.768;2.722;2023-02-18T01:57:00;102887.28;;;6.23;100.00
54248;BME280;40161;39.768;2.722;2023-02-18T01:59:32;102891.19;;;6.11;100.00
54248;BME280;40161;39.768;2.722;2023-02-18T02:01:59;102883.72;;;5.83;100.00
54248;BME280;40161;39.768;2.722;2023-02-18T02:04:25;102894.59;;;5.83;100.00
54248;BME280;40161;39.768;2.722;2023-02-18T02:06:50;102889.66;;;5.85;100.00
54248;BME280;40161;39.768;2.722;2023-02-18T02:09:18;102877.72;;;5.81;100.00
54248;BME280;40161;39.768;2.722;2023-02-18T02:17:15;102883.97;;;6.31;100.00
54248;BME280;40161;39.768;2.722;2023-02-18T02:36:13;102876.78;;;5.51;100.00
54248;BME280;40161;39.768;2.722;2023-02-18T02:38:58;102861.22;;;5.57;100.00
54248;BME280;40161;39.768;2.722;2023-02-18T02:44:21;102870.53;;;5.51;100.00
54248;BME280;40161;39.768;2.722;2023-02-18T02:46:59;102869.16;;;5.48;100.00
54248;BME280;40161;39.768;2.722;2023-02-18T02:52:16;102869.38;;;5.57;100.00
54248;BME280;40161;39.768;2.722;2023-02-18T02:54:45;102859.44;;;5.86;100.00
54248;BME280;40161;39.768;2.722;2023-02-18T02:59:38;102854.88;;;5.12;100.00
54248;BME280;40161;39.768;2.722;2023-02-18T03:16:12;102854.66;;;5.63;100.00
54248;BME280;40161;39.768;2.722;2023-02-18T03:18:48;102848.22;;;5.88;100.00
54248;BME280;40161;39.768;2.722;2023-02-18T03:24:07;102864.44;;;5.69;100.00
54248;BME280;40161;39.768;2.722;2023-02-18T03:26:39;102865.28;;;5.64;100.00
54248;BME280;40161;39.768;2.722;2023-02-18T03:29:07;102859.09;;;5.48;100.00
54248;BME280;40161;39.768;2.722;2023-02-18T03:31:36;102841.47;;;5.31;100.00
54248;BME280;40161;39.768;2.722;2023-02-18T03:34:10;102852.28;;;5.51;100.00
54248;BME280;40161;39.768;2.722;2023-02-18T03:36:38;102859.03;;;5.54;100.00
54248;BME280;40161;39.768;2.722;2023-02-18T03:39:14;102847.50;;;5.17;100.00
54248;BME280;40161;39.768;2.722;2023-02-18T03:41:40;102850.22;;;5.17;100.00
54248;BME280;40161;39.768;2.722;2023-02-18T03:44:08;102846.16;;;5.20;100.00
54248;BME280;40161;39.768;2.722;2023-02-18T03:46:36;102836.88;;;5.21;100.00
54248;BME280;40161;39.768;2.722;2023-02-18T03:49:02;102841.50;;;5.20;100.00
54248;BME280;40161;39.768;2.722;2023-02-18T03:51:28;102841.81;;;5.09;100.00
54248;BME280;40161;39.768;2.722;2023-02-18T03:53:54;102835.00;;;5.11;100.00
54248;BME280;40161;39.768;2.722;2023-02-18T03:56:20;102831.78;;;4.99;100.00
54248;BME280;40161;39.768;2.722;2023-02-18T03:58:45;102833.09;;;5.17;100.00
54248;BME280;40161;39.768;2.722;2023-02-18T04:01:11;102832.75;;;5.29;100.00
54248;BME280;40161;39.768;2.722;2023-02-18T04:03:37;102830.31;;;5.82;100.00
54248;BME280;40161;39.768;2.722;2023-02-18T04:06:02;102845.75;;;5.91;100.00
54248;BME280;40161;39.768;2.722;2023-02-18T04:08:28;102843.41;;;5.80;100.00
54248;BME280;40161;39.768;2.722;2023-02-18T04:10:54;102825.00;;;5.56;100.00
54248;BME280;40161;39.768;2.722;2023-02-18T04:13:19;102822.41;;;5.26;100.00
54248;BME280;40161;39.768;2.722;2023-02-18T04:15:45;102825.53;;;4.93;100.00
54248;BME280;40161;39.768;2.722;2023-02-18T04:18:13;102825.75;;;5.07;100.00
54248;BME280;40161;39.768;2.722;2023-02-18T04:20:38;102823.88;;;5.03;100.00
54248;BME280;40161;39.768;2.722;2023-02-18T04:23:04;102821.41;;;5.01;100.00
54248;BME280;40161;39.768;2.722;2023-02-18T04:25:30;102841.50;;;5.15;100.00
54248;BME280;40161;39.768;2.722;2023-02-18T04:27:55;102829.88;;;4.99;100.00
54248;BME280;40161;39.768;2.722;2023-02-18T04:30:21;102833.34;;;5.15;100.00
54248;BME280;40161;39.768;2.722;2023-02-18T04:32:46;102834.50;;;4.94;100.00
54248;BME280;40161;39.768;2.722;2023-02-18T04:35:12;102828.81;;;4.90;100.00
54248;BME280;40161;39.768;2.722;2023-02-18T04:37:38;102819.53;;;4.91;100.00
54248;BME280;40161;39.768;2.722;2023-02-18T04:40:04;102843.78;;;4.93;100.00
54248;BME280;40161;39.768;2.722;2023-02-18T04:42:29;102829.34;;;4.87;100.00
54248;BME280;40161;39.768;2.722;2023-02-18T04:44:55;102832.84;;;4.98;100.00
54248;BME280;40161;39.768;2.722;2023-02-18T04:47:20;102816.03;;;4.81;100.00
54248;BME280;40161;39.768;2.722;2023-02-18T04:49:46;102827.47;;;4.78;100.00
54248;BME280;40161;39.768;2.722;2023-02-18T04:52:12;102794.59;;;4.69;100.00
54248;BME280;40161;39.768;2.722;2023-02-18T04:54:37;102839.41;;;4.97;100.00
54248;BME280;40161;39.768;2.722;2023-02-18T04:57:03;102813.22;;;5.16;100.00
54248;BME280;40161;39.768;2.722;2023-02-18T04:59:28;102817.63;;;5.57;100.00
54248;BME280;40161;39.768;2.722;2023-02-18T05:01:54;102828.28;;;5.53;100.00
54248;BME280;40161;39.768;2.722;2023-02-18T05:04:19;102836.19;;;5.50;100.00
54248;BME280;40161;39.768;2.722;2023-02-18T05:06:46;102843.69;;;5.18;100.00
54248;BME280;40161;39.768;2.722;2023-02-18T05:09:12;102822.25;;;4.96;100.00
54248;BME280;40161;39.768;2.722;2023-02-18T05:11:37;102830.13;;;4.98;100.00
54248;BME280;40161;39.768;2.722;2023-02-18T05:14:03;102820.91;;;4.94;100.00
54248;BME280;40161;39.768;2.722;2023-02-18T05:16:29;102838.53;;;5.12;100.00
54248;BME280;40161;39.768;2.722;2023-02-18T05:18:55;102838.03;;;4.99;100.00
54248;BME280;40161;39.768;2.722;2023-02-18T05:21:20;102840.53;;;4.81;100.00
54248;BME280;40161;39.768;2.722;2023-02-18T05:23:46;102842.16;;;4.87;100.00
54248;BME280;40161;39.768;2.722;2023-02-18T05:26:11;102841.84;;;4.98;100.00
54248;BME280;40161;39.768;2.722;2023-02-18T05:28:37;102840.38;;;5.37;100.00
54248;BME280;40161;39.768;2.722;2023-02-18T05:31:02;102828.16;;;5.19;100.00
54248;BME280;40161;39.768;2.722;2023-02-18T05:33:28;102838.06;;;4.89;100.00
54248;BME280;40161;39.768;2.722;2023-02-18T05:35:54;102845.91;;;5.01;100.00
54248;BME280;40161;39.768;2.722;2023-02-18T05:38:19;102856.88;;;4.75;100.00
54248;BME280;40161;39.768;2.722;2023-02-18T05:40:45;102850.88;;;4.79;100.00
54248;BME280;40161;39.768;2.722;2023-02-18T05:43:11;102827.66;;;5.12;100.00
54248;BME280;40161;39.768;2.722;2023-02-18T05:45:38;102866.69;;;5.52;100.00
54248;BME280;40161;39.768;2.722;2023-02-18T05:48:04;102862.47;;;5.15;100.00
54248;BME280;40161;39.768;2.722;2023-02-18T05:50:29;102840.81;;;4.69;100.00
54248;BME280;40161;39.768;2.722;2023-02-18T05:52:55;102854.66;;;4.78;100.00
54248;BME280;40161;39.768;2.722;2023-02-18T05:55:20;102847.59;;;4.76;100.00
54248;BME280;40161;39.768;2.722;2023-02-18T05:57:46;102854.16;;;4.65;100.00
54248;BME280;40161;39.768;2.722;2023-02-18T06:00:12;102855.78;;;4.66;100.00
54248;BME280;40161;39.768;2.722;2023-02-18T06:02:38;102850.03;;;4.93;100.00
54248;BME280;40161;39.768;2.722;2023-02-18T06:05:04;102845.41;;;4.94;100.00
54248;BME280;40161;39.768;2.722;2023-02-18T06:07:30;102837.53;;;4.92;100.00
54248;BME280;40161;39.768;2.722;2023-02-18T06:09:55;102842.09;;;5.07;100.00
54248;BME280;40161;39.768;2.722;2023-02-18T06:12:21;102844.09;;;5.46;100.00
54248;BME280;40161;39.768;2.722;2023-02-18T06:14:46;102839.97;;;5.59;100.00
54248;BME280;40161;39.768;2.722;2023-02-18T06:17:13;102833.25;;;5.41;100.00
54248;BME280;40161;39.768;2.722;2023-02-18T06:19:39;102837.16;;;5.14;100.00
54248;BME280;40161;39.768;2.722;2023-02-18T06:22:05;102827.94;;;5.05;100.00
54248;BME280;40161;39.768;2.722;2023-02-18T06:24:32;102843.16;;;5.11;100.00
54248;BME280;40161;39.768;2.722;2023-02-18T06:26:58;102844.34;;;4.74;100.00
54248;BME280;40161;39.768;2.722;2023-02-18T06:29:23;102832.91;;;4.83;100.00
54248;BME280;40161;39.768;2.722;2023-02-18T06:31:49;102842.97;;;4.77;100.00
54248;BME280;40161;39.768;2.722;2023-02-18T06:34:15;102838.66;;;4.66;100.00
54248;BME280;40161;39.768;2.722;2023-02-18T06:36:41;102837.28;;;4.68;100.00
54248;BME280;40161;39.768;2.722;2023-02-18T06:39:06;102833.19;;;4.76;100.00
54248;BME280;40161;39.768;2.722;2023-02-18T06:41:32;102848.13;;;4.84;100.00
54248;BME280;40161;39.768;2.722;2023-02-18T06:43:58;102837.00;;;4.85;100.00
54248;BME280;40161;39.768;2.722;2023-02-18T06:46:23;102844.56;;;4.98;100.00
54248;BME280;40161;39.768;2.722;2023-02-18T06:48:49;102849.47;;;4.96;100.00
54248;BME280;40161;39.768;2.722;2023-02-18T06:51:14;102829.09;;;4.84;100.00
54248;BME280;40161;39.768;2.722;2023-02-18T06:53:44;102863.50;;;5.29;100.00
54248;BME280;40161;39.768;2.722;2023-02-18T06:56:10;102853.97;;;5.37;100.00
54248;BME280;40161;39.768;2.722;2023-02-18T06:58:36;102835.47;;;5.34;100.00
54248;BME280;40161;39.768;2.722;2023-02-18T07:01:02;102864.84;;;5.42;100.00
54248;BME280;40161;39.768;2.722;2023-02-18T07:03:27;102865.78;;;5.02;100.00
54248;BME280;40161;39.768;2.722;2023-02-18T07:05:53;102861.75;;;4.84;100.00
54248;BME280;40161;39.768;2.722;2023-02-18T07:08:18;102873.69;;;4.93;100.00
54248;BME280;40161;39.768;2.722;2023-02-18T07:10:44;102874.78;;;4.97;100.00
54248;BME280;40161;39.768;2.722;2023-02-18T07:13:10;102871.50;;;5.00;100.00
54248;BME280;40161;39.768;2.722;2023-02-18T07:15:35;102863.88;;;5.02;100.00
54248;BME280;40161;39.768;2.722;2023-02-18T07:18:01;102874.22;;;5.00;100.00
54248;BME280;40161;39.768;2.722;2023-02-18T07:20:27;102883.19;;;5.00;100.00
54248;BME280;40161;39.768;2.722;2023-02-18T07:22:52;102885.34;;;5.09;100.00
54248;BME280;40161;39.768;2.722;2023-02-18T07:25:18;102883.72;;;5.13;100.00
54248;BME280;40161;39.768;2.722;2023-02-18T07:27:44;102888.38;;;5.07;100.00
54248;BME280;40161;39.768;2.722;2023-02-18T07:30:09;102892.59;;;5.49;100.00
54248;BME280;40161;39.768;2.722;2023-02-18T07:32:35;102884.06;;;5.61;100.00
54248;BME280;40161;39.768;2.722;2023-02-18T07:35:02;102889.88;;;5.44;100.00
54248;BME280;40161;39.768;2.722;2023-02-18T07:37:28;102888.16;;;5.68;100.00
54248;BME280;40161;39.768;2.722;2023-02-18T07:39:53;102901.47;;;5.70;100.00
54248;BME280;40161;39.768;2.722;2023-02-18T07:42:19;102889.41;;;5.27;100.00
54248;BME280;40161;39.768;2.722;2023-02-18T07:44:44;102886.16;;;5.14;100.00
54248;BME280;40161;39.768;2.722;2023-02-18T07:47:13;102898.66;;;5.26;100.00
54248;BME280;40161;39.768;2.722;2023-02-18T07:49:39;102897.59;;;5.11;100.00
54248;BME280;40161;39.768;2.722;2023-02-18T07:52:05;102894.91;;;5.06;100.00
54248;BME280;40161;39.768;2.722;2023-02-18T07:54:31;102886.44;;;5.08;100.00
54248;BME280;40161;39.768;2.722;2023-02-18T07:56:56;102903.06;;;5.16;100.00
54248;BME280;40161;39.768;2.722;2023-02-18T07:59:22;102881.69;;;5.54;100.00
54248;BME280;40161;39.768;2.722;2023-02-18T08:01:47;102900.78;;;5.44;100.00
54248;BME280;40161;39.768;2.722;2023-02-18T08:04:13;102894.88;;;5.16;100.00
54248;BME280;40161;39.768;2.722;2023-02-18T08:06:42;102890.50;;;5.20;100.00
54248;BME280;40161;39.768;2.722;2023-02-18T08:09:08;102901.38;;;5.31;100.00
54248;BME280;40161;39.768;2.722;2023-02-18T08:11:34;102896.78;;;5.11;100.00
54248;BME280;40161;39.768;2.722;2023-02-18T08:14:00;102903.34;;;5.10;100.00
54248;BME280;40161;39.768;2.722;2023-02-18T08:16:25;102907.94;;;5.09;100.00
54248;BME280;40161;39.768;2.722;2023-02-18T08:18:52;102907.09;;;5.19;100.00
54248;BME280;40161;39.768;2.722;2023-02-18T08:21:20;102899.19;;;5.28;100.00
54248;BME280;40161;39.768;2.722;2023-02-18T08:23:46;102905.94;;;5.45;100.00
54248;BME280;40161;39.768;2.722;2023-02-18T08:26:12;102920.66;;;5.44;100.00
54248;BME280;40161;39.768;2.722;2023-02-18T08:28:38;102909.22;;;5.47;100.00
54248;BME280;40161;39.768;2.722;2023-02-18T08:31:04;102922.75;;;5.63;100.00
54248;BME280;40161;39.768;2.722;2023-02-18T08:33:30;102924.34;;;5.74;100.00
54248;BME280;40161;39.768;2.722;2023-02-18T08:35:56;102913.34;;;6.00;100.00
54248;BME280;40161;39.768;2.722;2023-02-18T08:38:23;102914.59;;;6.17;100.00
54248;BME280;40161;39.768;2.722;2023-02-18T08:40:48;102914.28;;;6.24;100.00
54248;BME280;40161;39.768;2.722;2023-02-18T08:43:16;102908.94;;;6.43;100.00
54248;BME280;40161;39.768;2.722;2023-02-18T08:45:43;102913.03;;;6.46;100.00
54248;BME280;40161;39.768;2.722;2023-02-18T08:48:10;102911.19;;;6.36;100.00
54248;BME280;40161;39.768;2.722;2023-02-18T08:50:37;102916.25;;;6.53;100.00
54248;BME280;40161;39.768;2.722;2023-02-18T08:53:02;102918.72;;;6.83;100.00
54248;BME280;40161;39.768;2.722;2023-02-18T08:55:33;102919.88;;;7.06;100.00
54248;BME280;40161;39.768;2.722;2023-02-18T08:57:59;102908.25;;;7.20;100.00
54248;BME280;40161;39.768;2.722;2023-02-18T09:00:25;102914.44;;;7.30;100.00
54248;BME280;40161;39.768;2.722;2023-02-18T09:02:51;102921.03;;;7.48;100.00
54248;BME280;40161;39.768;2.722;2023-02-18T09:05:16;102920.91;;;7.58;100.00
54248;BME280;40161;39.768;2.722;2023-02-18T09:07:42;102916.63;;;7.95;100.00
54248;BME280;40161;39.768;2.722;2023-02-18T09:10:09;102919.78;;;8.02;100.00
54248;BME280;40161;39.768;2.722;2023-02-18T09:12:35;102910.63;;;8.12;100.00
54248;BME280;40161;39.768;2.722;2023-02-18T09:15:00;102915.94;;;8.22;100.00
54248;BME280;40161;39.768;2.722;2023-02-18T09:17:27;102920.38;;;8.37;100.00
54248;BME280;40161;39.768;2.722;2023-02-18T09:19:53;102923.91;;;8.56;100.00
54248;BME280;40161;39.768;2.722;2023-02-18T09:22:18;102929.63;;;8.74;100.00
54248;BME280;40161;39.768;2.722;2023-02-18T09:24:44;102917.41;;;8.85;100.00
54248;BME280;40161;39.768;2.722;2023-02-18T09:27:09;102902.75;;;8.95;100.00
54248;BME280;40161;39.768;2.722;2023-02-18T09:29:38;102911.88;;;9.18;100.00
54248;BME280;40161;39.768;2.722;2023-02-18T09:32:04;102917.28;;;9.37;100.00
54248;BME280;40161;39.768;2.722;2023-02-18T09:34:30;102912.00;;;9.54;100.00
54248;BME280;40161;39.768;2.722;2023-02-18T09:36:55;102908.44;;;9.67;100.00
54248;BME280;40161;39.768;2.722;2023-02-18T09:39:21;102912.84;;;9.91;100.00
54248;BME280;40161;39.768;2.722;2023-02-18T09:41:51;102909.25;;;10.04;97.21
54248;BME280;40161;39.768;2.722;2023-02-18T09:49:30;102911.63;;;10.56;91.27
54248;BME280;40161;39.768;2.722;2023-02-18T09:52:05;102905.25;;;10.69;89.35
54248;BME280;40161;39.768;2.722;2023-02-18T09:54:34;102904.69;;;10.81;87.38
54248;BME280;40161;39.768;2.722;2023-02-18T09:57:00;102914.47;;;11.04;87.35
54248;BME280;40161;39.768;2.722;2023-02-18T09:59:29;102921.19;;;11.21;84.93
54248;BME280;40161;39.768;2.722;2023-02-18T10:01:56;102852.06;;;10.96;83.18
54248;BME280;40161;39.768;2.722;2023-02-18T10:04:43;102920.66;;;11.50;81.17
54248;BME280;40161;39.768;2.722;2023-02-18T10:07:20;102891.84;;;11.47;77.48
54248;BME280;40161;39.768;2.722;2023-02-18T10:09:49;102919.25;;;11.78;76.45
54248;BME280;40161;39.768;2.722;2023-02-18T10:12:19;102918.00;;;11.93;76.79
54248;BME280;40161;39.768;2.722;2023-02-18T10:14:49;102922.41;;;12.03;74.85
54248;BME280;40161;39.768;2.722;2023-02-18T10:17:16;102913.69;;;12.18;72.38
54248;BME280;40161;39.768;2.722;2023-02-18T10:19:43;102910.56;;;12.28;72.27
54248;BME280;40161;39.768;2.722;2023-02-18T10:22:13;102904.75;;;12.39;73.08
54248;BME280;40161;39.768;2.722;2023-02-18T10:24:43;102908.31;;;12.48;72.77
54248;BME280;40161;39.768;2.722;2023-02-18T10:27:20;102912.16;;;12.55;73.11
54248;BME280;40161;39.768;2.722;2023-02-18T10:29:48;102910.69;;;12.75;73.29
54248;BME280;40161;39.768;2.722;2023-02-18T10:32:31;102896.69;;;12.89;71.89
54248;BME280;40161;39.768;2.722;2023-02-18T10:35:18;102907.06;;;12.92;71.24
54248;BME280;40161;39.768;2.722;2023-02-18T10:40:58;102907.50;;;13.12;71.61
54248;BME280;40161;39.768;2.722;2023-02-18T10:51:39;102895.47;;;13.54;71.78
54248;BME280;40161;39.768;2.722;2023-02-18T10:54:10;102899.13;;;13.67;73.30
54248;BME280;40161;39.768;2.722;2023-02-18T10:56:40;102889.25;;;13.66;72.88
54248;BME280;40161;39.768;2.722;2023-02-18T11:01:55;102891.31;;;13.69;74.20
54248;BME280;40161;39.768;2.722;2023-02-18T11:04:26;102885.34;;;13.88;72.82
54248;BME280;40161;39.768;2.722;2023-02-18T11:06:53;102891.78;;;13.92;72.40
54248;BME280;40161;39.768;2.722;2023-02-18T11:11:50;102883.25;;;14.06;71.88
54248;BME280;40161;39.768;2.722;2023-02-18T11:14:44;102873.13;;;14.10;71.46
54248;BME280;40161;39.768;2.722;2023-02-18T11:17:29;102884.44;;;14.17;70.39
54248;BME280;40161;39.768;2.722;2023-02-18T11:20:01;102877.56;;;14.23;68.23
54248;BME280;40161;39.768;2.722;2023-02-18T11:24:58;102878.09;;;14.17;67.90
54248;BME280;40161;39.768;2.722;2023-02-18T11:27:44;102871.06;;;14.40;67.40
54248;BME280;40161;39.768;2.722;2023-02-18T11:30:23;102871.88;;;14.41;68.29
54248;BME280;40161;39.768;2.722;2023-02-18T11:33:01;102871.97;;;14.65;64.75
54248;BME280;40161;39.768;2.722;2023-02-18T11:35:29;102867.09;;;14.50;64.36
54248;BME280;40161;39.768;2.722;2023-02-18T11:37:57;102875.09;;;14.64;64.46
54248;BME280;40161;39.768;2.722;2023-02-18T11:40:29;102868.16;;;14.58;65.18
54248;BME280;40161;39.768;2.722;2023-02-18T11:43:13;102868.84;;;14.55;66.30
54248;BME280;40161;39.768;2.722;2023-02-18T11:45:39;102863.84;;;14.81;65.27
54248;BME280;40161;39.768;2.722;2023-02-18T11:48:13;102858.88;;;14.75;65.84
54248;BME280;40161;39.768;2.722;2023-02-18T11:50:40;102856.59;;;14.77;65.81
54248;BME280;40161;39.768;2.722;2023-02-18T11:53:35;102861.28;;;14.64;66.45
54248;BME280;40161;39.768;2.722;2023-02-18T11:56:05;102857.59;;;14.60;66.11
54248;BME280;40161;39.768;2.722;2023-02-18T11:58:42;102847.94;;;14.78;67.10
54248;BME280;40161;39.768;2.722;2023-02-18T12:06:48;102856.22;;;14.78;68.23
54248;BME280;40161;39.768;2.722;2023-02-18T12:09:22;102845.41;;;14.73;67.10
54248;BME280;40161;39.768;2.722;2023-02-18T12:11:55;102843.44;;;14.74;67.31
54248;BME280;40161;39.768;2.722;2023-02-18T12:14:22;102836.41;;;14.76;66.54
54248;BME280;40161;39.768;2.722;2023-02-18T12:22:41;102815.25;;;15.05;64.15
54248;BME280;40161;39.768;2.722;2023-02-18T12:30:44;102817.88;;;14.89;65.34
54248;BME280;40161;39.768;2.722;2023-02-18T12:39:10;102797.13;;;15.19;64.50
54248;BME280;40161;39.768;2.722;2023-02-18T12:47:06;102776.81;;;15.28;64.65
54248;BME280;40161;39.768;2.722;2023-02-18T12:49:51;102761.88;;;15.29;64.56
54248;BME280;40161;39.768;2.722;2023-02-18T12:52:47;102760.13;;;15.36;63.92
54248;BME280;40161;39.768;2.722;2023-02-18T12:58:32;102753.59;;;15.57;63.69
54248;BME280;40161;39.768;2.722;2023-02-18T13:01:28;102735.59;;;15.23;63.81
54248;BME280;40161;39.768;2.722;2023-02-18T13:07:22;102740.09;;;15.55;63.21
54248;BME280;40161;39.768;2.722;2023-02-18T13:15:00;102735.00;;;15.29;65.14
54248;BME280;40161;39.768;2.722;2023-02-18T13:17:32;102726.34;;;15.31;65.28
54248;BME280;40161;39.768;2.722;2023-02-18T13:20:04;102710.19;;;15.45;65.30
54248;BME280;40161;39.768;2.722;2023-02-18T13:22:34;102714.19;;;15.48;63.93
54248;BME280;40161;39.768;2.722;2023-02-18T13:25:00;102716.53;;;15.33;64.57
54248;BME280;40161;39.768;2.722;2023-02-18T13:33:10;102691.63;;;15.46;64.74
54248;BME280;40161;39.768;2.722;2023-02-18T13:35:47;102690.75;;;15.29;65.46
54248;BME280;40161;39.768;2.722;2023-02-18T13:38:44;102682.28;;;15.38;64.53
54248;BME280;40161;39.768;2.722;2023-02-18T13:41:12;102682.56;;;15.33;65.25
54248;BME280;40161;39.768;2.722;2023-02-18T13:43:38;102669.22;;;15.23;66.31
54248;BME280;40161;39.768;2.722;2023-02-18T13:48:44;102664.97;;;15.13;64.60
54248;BME280;40161;39.768;2.722;2023-02-18T13:51:13;102670.88;;;15.39;65.02
54248;BME280;40161;39.768;2.722;2023-02-18T13:53:42;102652.59;;;15.35;64.39
54248;BME280;40161;39.768;2.722;2023-02-18T13:56:29;102654.63;;;15.38;65.31
54248;BME280;40161;39.768;2.722;2023-02-18T13:59:17;102662.03;;;15.34;66.33
54248;BME280;40161;39.768;2.722;2023-02-18T14:01:49;102648.75;;;15.39;65.78
54248;BME280;40161;39.768;2.722;2023-02-18T14:04:55;102651.13;;;15.25;67.15
54248;BME280;40161;39.768;2.722;2023-02-18T14:09:58;102646.88;;;15.43;65.59
54248;BME280;40161;39.768;2.722;2023-02-18T14:18:06;102633.53;;;15.46;64.66
54248;BME280;40161;39.768;2.722;2023-02-18T14:25:52;102648.84;;;15.43;66.06
54248;BME280;40161;39.768;2.722;2023-02-18T14:28:35;102654.09;;;14.92;65.23
54248;BME280;40161;39.768;2.722;2023-02-18T14:33:39;102645.28;;;15.14;68.05
54248;BME280;40161;39.768;2.722;2023-02-18T14:36:31;102646.47;;;15.01;68.77
54248;BME280;40161;39.768;2.722;2023-02-18T14:42:03;102643.91;;;15.08;69.33
54248;BME280;40161;39.768;2.722;2023-02-18T14:50:32;102635.22;;;14.94;70.23
54248;BME280;40161;39.768;2.722;2023-02-18T14:53:02;102634.91;;;14.83;70.12
54248;BME280;40161;39.768;2.722;2023-02-18T14:55:32;102629.69;;;14.82;67.45
54248;BME280;40161;39.768;2.722;2023-02-18T15:00:29;102623.22;;;14.90;67.14
54248;BME280;40161;39.768;2.722;2023-02-18T15:02:59;102623.47;;;14.85;68.54
54248;BME280;40161;39.768;2.722;2023-02-18T15:05:30;102620.97;;;14.80;68.78
54248;BME280;40161;39.768;2.722;2023-02-18T15:08:35;102608.25;;;14.91;69.06
54248;BME280;40161;39.768;2.722;2023-02-18T15:11:02;102619.00;;;14.80;71.17
54248;BME280;40161;39.768;2.722;2023-02-18T15:13:34;102614.22;;;14.93;69.78
54248;BME280;40161;39.768;2.722;2023-02-18T15:16:06;102609.63;;;14.97;72.15
54248;BME280;40161;39.768;2.722;2023-02-18T15:18:36;102606.19;;;14.88;73.70
54248;BME280;40161;39.768;2.722;2023-02-18T15:21:04;102610.03;;;14.71;73.10
54248;BME280;40161;39.768;2.722;2023-02-18T15:23:33;102609.94;;;14.67;73.31
54248;BME280;40161;39.768;2.722;2023-02-18T15:26:00;102609.34;;;14.74;72.68